Time;durP1;ratioP1;P1;durP2;ratioP2;P2;SDS_P1;SDS_P2;PMS_P1;PMS_P2;Temp;Humidity;BMP_temperature;BMP_pressure;BME280_temperature;BME280_humidity;BME280_pressure;Samples;Min_cycle;Max_cycle;Signal;HPM_P1;HPM_P2
2022/11/02 00:01:40;;;;;;;9.40;1.88;;;14.80;70.60;;;;;;5052279;28;20030;-75
2022/11/02 00:04:06;;;;;;;5.93;1.70;;;14.90;70.70;;;;;;5052240;28;20052;-75
2022/11/02 00:06:31;;;;;;;7.37;1.70;;;14.80;70.80;;;;;;5011028;28;1172913;-76
2022/11/02 00:08:57;;;;;;;8.90;1.50;;;14.80;70.60;;;;;;5036678;28;20036;-75
2022/11/02 00:11:22;;;;;;;4.18;1.13;;;14.80;71.00;;;;;;5057093;28;20041;-75
2022/11/02 00:13:48;;;;;;;4.35;1.17;;;14.80;71.00;;;;;;5039635;28;20030;-75
2022/11/02 00:16:16;;;;;;;2.90;0.88;;;14.80;71.00;;;;;;5039547;28;20026;-75
2022/11/02 00:18:45;;;;;;;6.68;1.20;;;14.80;71.20;;;;;;5056976;28;20021;-76
2022/11/02 00:21:12;;;;;;;9.45;2.28;;;14.80;71.20;;;;;;5057035;28;20093;-76
2022/11/02 00:23:39;;;;;;;5.88;0.90;;;14.80;71.10;;;;;;5055921;28;20048;-75
2022/11/02 00:26:05;;;;;;;4.80;1.27;;;14.80;71.30;;;;;;5056805;28;20017;-75
2022/11/02 00:28:31;;;;;;;4.70;1.50;;;14.80;71.50;;;;;;5039356;28;20037;-75
2022/11/02 00:30:56;;;;;;;4.65;0.98;;;14.70;71.50;;;;;;5039124;28;20025;-75
2022/11/02 00:33:22;;;;;;;9.18;1.35;;;14.70;71.70;;;;;;5039283;28;20508;-75
2022/11/02 00:35:48;;;;;;;4.65;1.27;;;14.70;71.60;;;;;;5056634;28;20034;-74
2022/11/02 00:38:13;;;;;;;6.65;1.20;;;14.70;71.60;;;;;;5039071;28;20034;-75
2022/11/02 00:40:39;;;;;;;7.85;1.15;;;14.70;71.80;;;;;;5056555;28;20036;-75
2022/11/02 00:43:05;;;;;;;5.82;1.10;;;14.70;72.00;;;;;;5056522;28;20036;-75
2022/11/02 00:45:31;;;;;;;6.03;1.55;;;14.70;72.10;;;;;;5056472;28;20025;-75
2022/11/02 00:47:56;;;;;;;7.40;1.08;;;14.60;72.00;;;;;;5039016;28;20031;-76
2022/11/02 00:50:22;;;;;;;5.10;1.25;;;14.60;71.90;;;;;;5038873;28;20524;-76
2022/11/02 00:52:47;;;;;;;5.53;0.93;;;14.60;71.90;;;;;;5056317;28;20032;-76
2022/11/02 00:55:14;;;;;;;5.85;0.90;;;14.50;71.80;;;;;;5056259;28;20496;-75
2022/11/02 00:57:40;;;;;;;8.95;1.92;;;14.50;72.00;;;;;;5056251;28;20053;-75
2022/11/02 01:00:08;;;;;;;4.53;1.17;;;14.50;72.20;;;;;;5038711;28;20029;-76
2022/11/02 01:02:34;;;;;;;5.35;1.20;;;14.50;72.10;;;;;;5056133;28;20024;-76
2022/11/02 01:05:00;;;;;;;6.93;1.20;;;14.50;72.10;;;;;;5056119;28;20033;-75
2022/11/02 01:07:27;;;;;;;5.13;1.02;;;14.40;72.10;;;;;;5055804;28;20058;-76
2022/11/02 01:09:53;;;;;;;7.20;1.20;;;14.50;72.30;;;;;;5055898;28;20037;-75
2022/11/02 01:12:18;;;;;;;5.50;1.05;;;14.50;72.10;;;;;;5055973;28;20030;-76
2022/11/02 01:14:48;;;;;;;2.30;0.60;;;14.50;71.80;;;;;;5056054;28;20032;-74
2022/11/02 01:17:15;;;;;;;6.15;1.58;;;14.50;71.70;;;;;;5055873;28;20017;-76
2022/11/02 01:19:40;;;;;;;2.88;0.93;;;14.50;71.20;;;;;;5038199;28;20032;-75
2022/11/02 01:22:06;;;;;;;5.50;1.02;;;14.60;71.20;;;;;;5055899;28;20489;-76
2022/11/02 01:24:32;;;;;;;4.43;1.13;;;14.60;71.10;;;;;;5055765;28;20164;-75
2022/11/02 01:26:58;;;;;;;4.65;0.90;;;14.60;70.70;;;;;;5038370;28;20034;-76
2022/11/02 01:29:24;;;;;;;5.13;1.23;;;14.70;70.70;;;;;;5055567;28;20037;-76
2022/11/02 01:31:52;;;;;;;2.70;1.25;;;14.70;70.90;;;;;;5055608;28;20040;-76
2022/11/02 01:34:18;;;;;;;6.47;1.00;;;14.70;71.00;;;;;;5038521;28;20013;-76
2022/11/02 01:36:45;;;;;;;6.43;1.00;;;14.60;71.30;;;;;;5038068;28;20024;-76
2022/11/02 01:39:11;;;;;;;3.47;0.80;;;14.60;71.30;;;;;;5055470;28;20022;-76
2022/11/02 01:41:37;;;;;;;4.32;0.90;;;14.60;71.10;;;;;;5055435;28;20025;-75
2022/11/02 01:44:04;;;;;;;2.45;0.70;;;14.60;70.50;;;;;;5055388;28;20021;-75
2022/11/02 01:46:38;;;;;;;5.68;0.90;;;14.60;69.20;;;;;;5037941;28;20026;-76
2022/11/02 01:49:09;;;;;;;4.28;0.63;;;14.70;69.00;;;;;;5054323;28;20389;-76
2022/11/02 01:51:57;;;;;;;2.10;0.68;;;14.70;68.70;;;;;;5055287;28;20017;-75
2022/11/02 01:54:28;;;;;;;4.93;0.80;;;14.70;68.20;;;;;;5055229;28;20033;-76
2022/11/02 01:57:02;;;;;;;5.57;1.10;;;14.60;68.20;;;;;;5055193;28;20109;-76
2022/11/02 01:59:35;;;;;;;6.15;0.95;;;14.60;68.20;;;;;;5055152;28;20021;-75
2022/11/02 02:02:07;;;;;;;7.45;1.30;;;14.60;67.40;;;;;;5054082;28;20022;-76
2022/11/02 02:04:34;;;;;;;3.35;0.75;;;14.60;67.50;;;;;;5055175;28;20029;-76
2022/11/02 02:07:00;;;;;;;4.93;0.90;;;14.60;67.50;;;;;;5054757;28;20045;-75
2022/11/02 02:09:27;;;;;;;4.93;0.98;;;14.60;67.30;;;;;;5054754;28;20029;-76
2022/11/02 02:11:53;;;;;;;2.40;0.73;;;14.50;67.00;;;;;;5054841;28;20060;-75
2022/11/02 02:14:19;;;;;;;5.00;1.00;;;14.50;67.10;;;;;;5054808;28;20021;-75
2022/11/02 02:17:11;;;;;;;2.25;0.73;;;14.50;66.80;;;;;;5054752;28;20029;-75
2022/11/02 02:20:07;;;;;;;4.60;0.80;;;14.50;67.20;;;;;;5010586;28;20041;-75
2022/11/02 02:23:03;;;;;;;2.38;0.63;;;14.50;67.10;;;;;;5054642;28;20373;-75
2022/11/02 02:25:47;;;;;;;4.50;0.70;;;14.50;67.20;;;;;;5054657;28;20025;-75
2022/11/02 02:28:27;;;;;;;4.63;0.60;;;14.50;67.50;;;;;;5037087;28;20030;-75
2022/11/02 02:31:01;;;;;;;6.15;0.70;;;14.50;67.60;;;;;;5054167;28;20061;-75
2022/11/02 02:33:34;;;;;;;3.38;0.90;;;14.40;67.60;;;;;;5054271;28;20025;-75
2022/11/02 02:36:19;;;;;;;5.97;1.13;;;14.50;68.00;;;;;;5053457;28;20089;-75
2022/11/02 02:39:02;;;;;;;8.30;0.98;;;14.50;67.80;;;;;;5054521;28;20025;-76
2022/11/02 02:41:37;;;;;;;4.15;0.80;;;14.50;67.70;;;;;;5054280;28;20080;-76
2022/11/02 02:44:05;;;;;;;2.45;0.80;;;14.50;67.80;;;;;;5036738;28;20037;-75
2022/11/02 02:46:40;;;;;;;3.50;0.63;;;14.40;67.80;;;;;;5054210;28;20028;-75
2022/11/02 02:49:08;;;;;;;3.95;0.60;;;14.40;68.00;;;;;;5054117;28;20021;-76
2022/11/02 02:51:36;;;;;;;4.32;1.02;;;14.30;68.30;;;;;;5054082;28;20017;-75
2022/11/02 02:54:13;;;;;;;2.90;0.65;;;14.30;68.50;;;;;;5054056;28;20020;-75
2022/11/02 02:56:44;;;;;;;4.43;0.90;;;14.30;68.60;;;;;;5054032;28;20025;-76
2022/11/02 02:59:26;;;;;;;4.85;0.70;;;14.30;68.80;;;;;;5054152;28;20029;-76
2022/11/02 03:01:53;;;;;;;5.28;1.10;;;14.30;68.80;;;;;;5053961;28;20017;-75
2022/11/02 03:04:18;;;;;;;2.08;0.73;;;14.20;69.10;;;;;;5052861;28;20112;-76
2022/11/02 03:06:49;;;;;;;4.03;1.20;;;14.20;70.00;;;;;;5036130;28;20048;-75
2022/11/02 03:09:36;;;;;;;3.63;0.80;;;14.20;70.00;;;;;;5052658;28;20128;-75
2022/11/02 03:12:35;;;;;;;3.20;0.80;;;14.20;69.30;;;;;;5053808;28;20025;-76
2022/11/02 03:15:18;;;;;;;6.05;0.93;;;14.10;69.60;;;;;;5053749;28;20014;-75
2022/11/02 03:17:43;;;;;;;7.35;0.80;;;14.10;69.70;;;;;;5052742;28;20030;-76
2022/11/02 03:20:29;;;;;;;3.42;0.73;;;14.00;69.90;;;;;;5053630;28;20037;-76
2022/11/02 03:23:10;;;;;;;7.45;1.10;;;14.00;70.20;;;;;;5053607;28;20082;-76
2022/11/02 03:25:46;;;;;;;3.95;1.08;;;13.90;70.30;;;;;;5053507;28;20036;-76
2022/11/02 03:28:17;;;;;;;2.85;1.00;;;14.00;70.30;;;;;;5053519;28;20080;-75
2022/11/02 03:31:04;;;;;;;9.02;1.38;;;13.90;70.40;;;;;;5053526;28;20040;-74
2022/11/02 03:33:42;;;;;;;3.55;0.75;;;13.90;70.50;;;;;;5052510;28;20027;-75
2022/11/02 03:36:11;;;;;;;6.13;1.08;;;13.90;70.50;;;;;;5053427;28;20024;-75
2022/11/02 03:38:42;;;;;;;3.60;0.63;;;13.90;70.40;;;;;;5053341;28;20101;-76
2022/11/02 03:41:10;;;;;;;7.18;1.30;;;13.90;70.50;;;;;;5035855;28;20056;-76
2022/11/02 03:43:37;;;;;;;4.60;1.30;;;13.80;71.30;;;;;;5053183;28;20021;-75
2022/11/02 03:46:05;;;;;;;6.95;1.30;;;13.90;70.60;;;;;;5053244;28;20040;-75
2022/11/02 03:48:37;;;;;;;3.55;0.75;;;13.80;70.40;;;;;;5036048;28;20030;-74
2022/11/02 03:51:10;;;;;;;6.30;1.33;;;13.80;70.10;;;;;;5035715;28;20072;-75
2022/11/02 03:53:43;;;;;;;5.18;0.80;;;13.80;70.30;;;;;;5053197;28;20017;-75
2022/11/02 03:56:17;;;;;;;5.70;0.90;;;13.80;70.20;;;;;;5053214;28;20021;-75
2022/11/02 03:58:43;;;;;;;5.85;0.90;;;13.80;70.00;;;;;;5053142;28;20041;-75
2022/11/02 04:01:10;;;;;;;4.85;1.00;;;13.80;69.90;;;;;;5035653;28;20037;-75
2022/11/02 04:03:43;;;;;;;9.27;1.38;;;13.80;69.90;;;;;;5053070;28;20113;-75
2022/11/02 04:06:11;;;;;;;11.48;2.08;;;13.80;69.80;;;;;;5053067;28;20428;-75
2022/11/02 04:08:40;;;;;;;4.05;0.90;;;13.80;69.70;;;;;;5052688;28;20128;-76
2022/11/02 04:16:34;;;;;;;12.45;1.38;;;13.80;69.70;;;;;;5053063;28;20060;-75
2022/11/02 04:25:14;;;;;;;5.28;1.20;;;13.80;69.50;;;;;;5038202;28;20033;-75
2022/11/02 04:27:27;;;;;;;7.07;1.10;;;13.70;69.70;;;;;;4998477;28;20026;-75
2022/11/02 04:29:53;;;;;;;8.20;1.40;;;13.70;70.00;;;;;;5035247;28;20037;-75
2022/11/02 04:33:31;;;;;;;4.78;0.52;;;13.70;70.10;;;;;;5052820;28;20030;-75
2022/11/02 04:35:05;;;;;;;6.50;1.17;;;13.70;70.30;;;;;;5052668;28;20113;-75
2022/11/02 04:40:21;;;;;;;6.82;1.20;;;13.70;70.60;;;;;;5052886;28;20052;-75
2022/11/02 04:42:47;;;;;;;4.53;1.10;;;13.70;70.80;;;;;;5052737;28;20037;-75
2022/11/02 04:45:13;;;;;;;4.80;1.13;;;13.70;70.80;;;;;;5052697;28;20021;-75
2022/11/02 04:47:38;;;;;;;10.82;1.23;;;13.70;70.70;;;;;;5035113;28;20033;-75
2022/11/02 04:50:04;;;;;;;4.40;1.02;;;13.60;70.80;;;;;;5052583;28;20030;-75
2022/11/02 04:52:30;;;;;;;9.50;1.38;;;13.60;70.80;;;;;;5035157;28;20033;-76
2022/11/02 04:54:55;;;;;;;6.13;1.75;;;13.70;71.10;;;;;;5053707;28;20089;-75
2022/11/02 04:57:21;;;;;;;4.60;0.73;;;13.70;71.10;;;;;;5056301;28;20017;-75
2022/11/02 04:59:46;;;;;;;6.03;1.23;;;13.70;71.00;;;;;;5056253;28;20440;-74
2022/11/02 05:02:12;;;;;;;4.75;1.17;;;13.70;70.70;;;;;;5038781;28;20053;-74
2022/11/02 05:04:37;;;;;;;11.05;1.33;;;13.70;70.80;;;;;;5038737;28;20045;-75
2022/11/02 05:07:06;;;;;;;3.70;0.88;;;13.70;70.90;;;;;;5055910;28;20037;-75
2022/11/02 05:09:32;;;;;;;7.55;1.10;;;13.70;70.70;;;;;;5055936;28;20026;-75
2022/11/02 05:11:57;;;;;;;6.72;0.70;;;13.60;71.00;;;;;;5056040;28;20381;-75
2022/11/02 05:14:23;;;;;;;6.25;1.73;;;13.60;71.00;;;;;;5055965;28;20416;-75
2022/11/02 05:16:49;;;;;;;6.05;1.00;;;13.60;71.00;;;;;;5038541;28;20072;-75
2022/11/02 05:19:16;;;;;;;7.40;1.60;;;13.60;71.00;;;;;;5055868;28;20037;-75
2022/11/02 05:21:42;;;;;;;10.90;1.27;;;13.60;70.80;;;;;;5055868;28;20035;-75
2022/11/02 05:24:07;;;;;;;10.43;1.55;;;13.60;70.70;;;;;;5055773;28;20034;-76
2022/11/02 05:26:33;;;;;;;5.75;1.20;;;13.60;70.70;;;;;;5055734;28;20033;-75
2022/11/02 05:28:58;;;;;;;7.40;1.02;;;13.60;70.60;;;;;;5055740;28;20085;-75
2022/11/02 05:31:24;;;;;;;7.57;1.20;;;13.60;70.60;;;;;;5055662;28;20025;-75
2022/11/02 05:33:49;;;;;;;8.13;1.58;;;13.60;70.80;;;;;;5038132;28;20417;-75
2022/11/02 05:36:15;;;;;;;6.80;1.30;;;13.60;70.70;;;;;;5055556;28;20076;-75
2022/11/02 05:38:41;;;;;;;4.53;0.77;;;13.60;70.60;;;;;;5038117;28;20026;-75
2022/11/02 05:41:06;;;;;;;5.00;1.00;;;13.70;70.70;;;;;;5055445;28;20477;-75
2022/11/02 05:43:32;;;;;;;7.65;1.15;;;13.60;70.40;;;;;;5055434;28;20037;-75
2022/11/02 05:45:59;;;;;;;5.00;1.13;;;13.60;70.50;;;;;;5055306;28;20033;-74
2022/11/02 05:48:27;;;;;;;9.52;1.40;;;13.70;70.30;;;;;;5055313;28;20021;-75
2022/11/02 05:50:57;;;;;;;4.38;1.20;;;13.70;70.20;;;;;;5054213;28;20026;-76
2022/11/02 05:53:25;;;;;;;5.25;1.13;;;13.80;70.00;;;;;;5037494;28;20037;-76
2022/11/02 05:55:51;;;;;;;6.90;1.77;;;13.70;70.00;;;;;;5037817;28;20022;-74
2022/11/02 05:58:17;;;;;;;5.05;0.80;;;13.70;70.00;;;;;;5037618;28;20029;-75
2022/11/02 06:00:42;;;;;;;5.03;1.10;;;13.70;70.00;;;;;;5055124;28;20025;-76
2022/11/02 06:03:08;;;;;;;6.75;0.90;;;13.70;70.10;;;;;;5054990;28;20113;-73
2022/11/02 06:05:34;;;;;;;6.30;1.00;;;13.70;70.00;;;;;;5054568;28;20036;-74
2022/11/02 06:08:00;;;;;;;7.75;1.40;;;13.70;69.90;;;;;;5036529;28;20065;-75
2022/11/02 06:10:28;;;;;;;7.57;1.08;;;13.60;70.10;;;;;;5054852;28;20022;-76
2022/11/02 06:13:02;;;;;;;5.13;0.88;;;13.60;70.20;;;;;;5054736;28;20140;-74
2022/11/02 06:15:30;;;;;;;6.05;1.02;;;13.60;70.20;;;;;;5054841;28;20025;-75
2022/11/02 06:17:55;;;;;;;6.38;0.75;;;13.50;70.50;;;;;;5054763;28;20021;-75
2022/11/02 06:20:22;;;;;;;4.35;0.95;;;13.50;70.50;;;;;;5037266;28;20473;-74
2022/11/02 06:22:48;;;;;;;4.18;0.70;;;13.40;70.30;;;;;;5037414;28;20030;-74
2022/11/02 06:25:14;;;;;;;5.15;0.73;;;13.40;70.40;;;;;;5037250;28;20068;-74
2022/11/02 06:27:40;;;;;;;6.28;1.05;;;13.40;70.60;;;;;;5054576;28;20377;-74
2022/11/02 06:30:06;;;;;;;8.98;0.90;;;13.40;70.80;;;;;;5036911;28;20034;-74
2022/11/02 06:32:32;;;;;;;5.25;1.17;;;13.30;70.70;;;;;;5036954;28;20026;-75
2022/11/02 06:34:58;;;;;;;3.30;0.70;;;13.30;70.80;;;;;;5054461;28;20082;-75
2022/11/02 06:37:24;;;;;;;6.60;0.80;;;13.30;70.80;;;;;;5054379;28;20028;-75
2022/11/02 06:39:49;;;;;;;6.25;1.20;;;13.30;71.00;;;;;;5036904;28;20029;-76
2022/11/02 06:42:15;;;;;;;4.70;1.30;;;13.20;71.20;;;;;;5037064;28;20034;-75
2022/11/02 06:44:40;;;;;;;6.80;1.02;;;13.20;71.30;;;;;;5054278;28;20056;-75
2022/11/02 06:47:06;;;;;;;7.68;1.23;;;13.20;72.40;;;;;;5054197;28;20033;-76
2022/11/02 06:49:33;;;;;;;5.75;1.42;;;13.10;71.60;;;;;;5036709;28;20033;-74
2022/11/02 06:51:58;;;;;;;5.75;1.08;;;13.20;71.70;;;;;;5036759;28;20030;-74
2022/11/02 06:54:24;;;;;;;6.05;1.38;;;13.10;71.70;;;;;;5054069;28;20021;-75
2022/11/02 06:56:50;;;;;;;8.05;1.60;;;13.10;72.00;;;;;;5036573;28;20175;-74
2022/11/02 06:59:16;;;;;;;4.97;0.80;;;13.00;72.30;;;;;;5036760;28;20080;-75
2022/11/02 07:01:42;;;;;;;5.72;1.02;;;13.00;72.40;;;;;;5036620;28;20029;-75
2022/11/02 07:04:07;;;;;;;4.95;0.85;;;13.00;72.40;;;;;;5053905;28;20029;-75
2022/11/02 07:06:33;;;;;;;4.10;1.48;;;13.00;72.20;;;;;;5053805;28;20033;-74
2022/11/02 07:08:58;;;;;;;7.47;0.73;;;13.00;72.40;;;;;;5053634;28;20068;-74
2022/11/02 07:11:24;;;;;;;9.00;0.95;;;13.00;73.40;;;;;;5053687;28;20037;-74
2022/11/02 07:13:50;;;;;;;8.38;1.08;;;13.00;72.90;;;;;;5053746;28;20053;-74
2022/11/02 07:16:15;;;;;;;4.38;0.70;;;13.00;72.80;;;;;;5053656;28;20037;-74
2022/11/02 07:18:41;;;;;;;4.68;0.75;;;13.00;72.90;;;;;;5053234;28;20030;-74
2022/11/02 07:21:09;;;;;;;5.32;0.88;;;13.00;72.90;;;;;;5036152;28;20037;-74
2022/11/02 07:23:35;;;;;;;7.95;1.27;;;13.00;72.80;;;;;;5053464;28;20025;-74
2022/11/02 07:26:01;;;;;;;3.72;0.82;;;13.00;73.10;;;;;;5053474;28;20044;-74
2022/11/02 07:28:26;;;;;;;5.05;1.00;;;13.00;72.90;;;;;;5053490;28;20536;-74
2022/11/02 07:30:55;;;;;;;7.90;1.00;;;13.00;72.70;;;;;;5035978;28;20036;-74
2022/11/02 07:33:21;;;;;;;5.93;1.35;;;13.00;72.50;;;;;;5052438;28;20033;-74
2022/11/02 07:35:47;;;;;;;8.00;1.05;;;13.00;72.60;;;;;;5053378;28;20025;-74
2022/11/02 07:38:13;;;;;;;6.38;1.05;;;13.10;72.40;;;;;;5053345;28;20040;-74
2022/11/02 07:40:38;;;;;;;3.17;0.70;;;13.00;72.50;;;;;;5036134;28;20052;-74
2022/11/02 07:43:05;;;;;;;6.20;1.08;;;13.10;72.50;;;;;;5053287;28;20025;-73
2022/11/02 07:45:31;;;;;;;8.45;1.17;;;13.10;72.60;;;;;;5053200;28;20028;-74
2022/11/02 07:47:57;;;;;;;8.57;1.10;;;13.10;72.50;;;;;;5052271;28;20021;-76
2022/11/02 07:50:25;;;;;;;6.70;1.00;;;13.10;72.40;;;;;;5051980;28;20194;-76
2022/11/02 07:52:56;;;;;;;6.85;1.08;;;13.10;72.20;;;;;;5052173;28;20017;-74
2022/11/02 07:55:26;;;;;;;4.43;0.75;;;13.10;71.60;;;;;;5035707;28;20049;-74
2022/11/02 07:58:08;;;;;;;7.28;1.17;;;13.10;71.90;;;;;;5053374;28;20032;-74
2022/11/02 08:00:36;;;;;;;7.22;1.02;;;13.20;72.00;;;;;;5052510;28;20073;-74
2022/11/02 08:03:04;;;;;;;4.57;1.08;;;13.20;71.80;;;;;;5051481;28;20049;-74
2022/11/02 08:05:32;;;;;;;4.68;0.80;;;13.30;71.80;;;;;;5052116;28;20026;-74
2022/11/02 08:08:02;;;;;;;7.25;1.65;;;13.40;71.60;;;;;;5052764;28;20046;-74
2022/11/02 08:10:30;;;;;;;6.82;0.95;;;13.60;71.30;;;;;;5052891;28;20057;-74
2022/11/02 08:12:56;;;;;;;4.63;1.20;;;13.70;70.60;;;;;;5053008;28;20077;-75
2022/11/02 08:15:22;;;;;;;6.60;1.02;;;14.10;69.90;;;;;;5053125;28;20472;-74
2022/11/02 08:18:02;;;;;;;4.00;1.05;;;14.60;68.30;;;;;;5052860;28;20028;-74
2022/11/02 08:20:29;;;;;;;7.80;0.82;;;15.10;66.80;;;;;;5053074;28;20108;-76
2022/11/02 08:22:54;;;;;;;4.07;0.90;;;15.20;65.80;;;;;;5052835;28;20102;-76
2022/11/02 08:25:20;;;;;;;9.07;1.48;;;15.20;66.00;;;;;;5051788;28;20033;-75
2022/11/02 08:27:49;;;;;;;2.85;0.85;;;15.20;65.30;;;;;;5051826;28;20029;-76
2022/11/02 08:30:15;;;;;;;7.70;1.00;;;15.00;66.10;;;;;;5054428;28;20144;-75
2022/11/02 08:32:40;;;;;;;6.88;0.90;;;14.80;66.40;;;;;;5039242;28;20100;-76
2022/11/02 08:35:07;;;;;;;5.13;0.93;;;14.80;67.10;;;;;;5039418;28;20029;-76
2022/11/02 08:37:32;;;;;;;5.78;1.02;;;15.00;66.80;;;;;;5055629;28;20029;-76
2022/11/02 08:39:58;;;;;;;7.82;0.93;;;15.30;66.50;;;;;;5056618;28;20034;-76
2022/11/02 08:42:24;;;;;;;6.32;1.05;;;15.50;65.50;;;;;;5055576;28;20056;-76
2022/11/02 08:44:49;;;;;;;7.13;0.93;;;15.50;65.60;;;;;;5056491;28;20026;-76
2022/11/02 08:47:17;;;;;;;5.90;1.67;;;15.40;65.20;;;;;;5055592;28;20038;-76
2022/11/02 08:49:43;;;;;;;7.53;1.02;;;15.40;65.20;;;;;;5039264;28;20032;-76
2022/11/02 08:52:09;;;;;;;7.03;1.13;;;15.20;66.10;;;;;;5056387;28;20026;-76
2022/11/02 08:54:35;;;;;;;5.70;0.90;;;15.20;66.00;;;;;;5056165;28;20021;-75
2022/11/02 08:57:00;;;;;;;3.50;0.90;;;15.20;66.00;;;;;;5055291;28;20026;-75
2022/11/02 08:59:26;;;;;;;6.25;1.00;;;15.20;66.00;;;;;;5056211;28;20033;-75
2022/11/02 09:01:51;;;;;;;5.55;0.88;;;15.30;65.40;;;;;;5038735;28;20089;-75
2022/11/02 09:04:17;;;;;;;7.97;1.20;;;15.10;65.10;;;;;;5038662;28;20021;-75
2022/11/02 09:06:43;;;;;;;3.85;1.13;;;15.00;66.30;;;;;;5055086;28;20121;-75
2022/11/02 09:09:11;;;;;;;4.80;0.70;;;14.90;66.40;;;;;;5054909;28;20056;-75
2022/11/02 09:11:37;;;;;;;7.13;1.48;;;14.80;66.60;;;;;;5038459;28;20034;-75
2022/11/02 09:14:02;;;;;;;4.15;0.82;;;14.80;67.20;;;;;;5055956;28;20030;-75
2022/11/02 09:16:30;;;;;;;12.35;1.33;;;14.90;67.60;;;;;;5055898;28;20026;-75
2022/11/02 09:18:55;;;;;;;8.98;1.80;;;14.90;67.30;;;;;;5055874;28;20112;-76
2022/11/02 09:21:21;;;;;;;7.95;1.80;;;15.00;66.50;;;;;;5055989;28;20516;-75
2022/11/02 09:23:48;;;;;;;7.70;1.30;;;15.00;66.50;;;;;;5055801;28;20052;-75
2022/11/02 09:26:14;;;;;;;6.38;1.35;;;15.10;66.60;;;;;;5055761;28;20025;-75
2022/11/02 09:28:40;;;;;;;7.18;1.52;;;15.20;66.10;;;;;;5021883;28;20037;-75
2022/11/02 09:31:05;;;;;;;6.22;1.10;;;15.20;65.60;;;;;;5055622;28;20021;-75
2022/11/02 09:33:33;;;;;;;7.70;1.27;;;15.20;64.60;;;;;;5039011;28;20025;-75
2022/11/02 09:36:06;;;;;;;5.47;0.95;;;15.20;65.50;;;;;;5036922;28;20094;-75
2022/11/02 09:38:32;;;;;;;7.47;1.13;;;15.20;64.80;;;;;;5054599;28;20033;-75
2022/11/02 09:41:09;;;;;;;5.82;0.90;;;15.20;64.10;;;;;;5037638;28;20052;-75
2022/11/02 09:43:51;;;;;;;10.77;1.20;;;15.30;65.10;;;;;;5055527;28;20029;-75
2022/11/02 09:46:46;;;;;;;9.07;1.20;;;15.30;64.10;;;;;;5055348;28;20053;-76
2022/11/02 09:49:16;;;;;;;7.82;1.48;;;15.30;63.90;;;;;;5032778;28;20060;-75
2022/11/02 09:51:49;;;;;;;6.65;1.40;;;15.30;63.80;;;;;;5055351;28;20017;-75
2022/11/02 09:54:22;;;;;;;7.47;1.10;;;15.40;64.70;;;;;;5054156;28;20030;-74
2022/11/02 09:56:49;;;;;;;7.57;1.17;;;15.40;63.30;;;;;;5055183;28;20018;-74
2022/11/02 09:59:20;;;;;;;3.55;1.02;;;15.30;63.50;;;;;;5055056;28;20029;-74
2022/11/02 10:02:00;;;;;;;5.80;0.95;;;15.20;63.70;;;;;;5055290;28;20022;-74
2022/11/02 10:04:45;;;;;;;6.68;0.90;;;15.20;64.20;;;;;;5055146;28;20028;-74
2022/11/02 10:08:24;;;;;;;8.25;1.50;;;15.40;64.80;;;;;;5037197;28;20485;-74
2022/11/02 10:11:45;;;;;;;;;;;;;;;;;;;;;
2022/11/02 10:14:38;;;;;;;6.72;1.10;;;15.40;64.20;;;;;;4937694;29;20056;-76
2022/11/02 10:18:00;;;;;;;6.07;1.02;;;15.40;64.10;;;;;;4937325;29;20020;-75
2022/11/02 10:20:44;;;;;;;4.95;0.88;;;15.60;64.10;;;;;;4861449;29;20054;-74
2022/11/02 10:23:40;;;;;;;7.43;1.52;;;15.70;63.40;;;;;;5019397;28;20053;-81
2022/11/02 10:26:11;;;;;;;4.50;1.23;;;15.60;64.00;;;;;;5032975;28;20037;-80
2022/11/02 10:28:40;;;;;;;7.82;1.50;;;15.50;64.00;;;;;;5017377;28;20064;-80
2022/11/02 10:31:31;;;;;;;7.15;1.55;;;15.60;64.50;;;;;;5016307;28;20030;-80
2022/11/02 10:34:17;;;;;;;8.35;1.35;;;15.50;64.00;;;;;;5032706;28;20026;-79
2022/11/02 10:36:54;;;;;;;7.05;1.05;;;15.50;63.40;;;;;;5032874;28;20105;-79
2022/11/02 10:39:32;;;;;;;4.38;0.82;;;15.60;63.40;;;;;;5016441;28;20085;-79
2022/11/02 10:42:15;;;;;;;5.13;1.02;;;15.60;62.40;;;;;;5032759;28;20061;-79
2022/11/02 10:44:49;;;;;;;8.60;1.38;;;15.50;62.80;;;;;;5032881;28;20042;-79
2022/11/02 10:47:19;;;;;;;10.52;1.75;;;15.30;62.80;;;;;;5032865;28;20030;-79
2022/11/02 10:50:11;;;;;;;7.85;1.30;;;15.40;63.30;;;;;;5032532;28;20444;-80
2022/11/02 10:52:40;;;;;;;6.75;1.10;;;15.60;63.60;;;;;;5032001;28;20032;-79
2022/11/02 10:55:12;;;;;;;5.13;1.27;;;15.50;63.10;;;;;;5032503;28;20029;-80
2022/11/02 10:57:38;;;;;;;;;;;15.60;62.40;;;;;;5033042;28;20050;-79
2022/11/02 11:00:25;;;;;;;7.10;1.08;;;15.70;62.70;;;;;;5032421;28;19913;-79
2022/11/02 11:03:11;;;;;;;2.72;0.65;;;15.90;63.00;;;;;;5032576;28;20042;-81
2022/11/02 11:05:48;;;;;;;7.30;1.33;;;16.00;60.20;;;;;;5032382;28;20030;-80
2022/11/02 11:08:35;;;;;;;6.72;1.10;;;16.20;60.20;;;;;;5031803;28;20053;-79
2022/11/02 11:11:14;;;;;;;4.82;0.98;;;16.20;59.60;;;;;;5045501;28;20044;-80
2022/11/02 11:13:41;;;;;;;2.97;1.42;;;16.20;60.10;;;;;;5052749;28;20025;-80
2022/11/02 11:16:08;;;;;;;8.40;1.27;;;16.20;60.00;;;;;;5053848;28;20029;-80
2022/11/02 11:18:34;;;;;;;8.63;1.13;;;16.30;60.80;;;;;;5020006;28;20511;-81
2022/11/02 11:21:00;;;;;;;4.95;0.80;;;16.40;59.50;;;;;;5036383;28;20093;-80
2022/11/02 11:23:26;;;;;;;4.45;0.75;;;16.50;58.80;;;;;;5052603;28;20057;-80
2022/11/02 11:26:04;;;;;;;7.88;0.90;;;16.50;58.20;;;;;;5036090;28;20033;-80
2022/11/02 11:28:41;;;;;;;8.25;1.65;;;16.60;58.20;;;;;;5053315;28;20025;-80
2022/11/02 11:31:14;;;;;;;5.40;1.02;;;16.60;57.60;;;;;;5053146;28;20034;-81
2022/11/02 11:33:42;;;;;;;7.13;1.65;;;16.60;56.90;;;;;;5053709;28;20041;-80
2022/11/02 11:36:10;;;;;;;5.78;1.77;;;16.60;57.50;;;;;;5053396;28;20047;-80
2022/11/02 11:38:35;;;;;;;5.68;1.25;;;16.60;56.20;;;;;;5036150;28;20035;-81
2022/11/02 11:41:02;;;;;;;5.60;0.90;;;16.50;55.80;;;;;;5035977;28;20022;-81
2022/11/02 11:43:33;;;;;;;6.45;1.10;;;16.60;57.70;;;;;;5053317;28;20037;-81
2022/11/02 11:46:02;;;;;;;4.53;0.93;;;16.60;55.90;;;;;;5035787;28;20041;-80
2022/11/02 11:48:49;;;;;;;4.32;1.15;;;16.60;56.10;;;;;;5052237;28;20021;-80
2022/11/02 11:51:40;;;;;;;4.55;0.85;;;16.60;55.00;;;;;;5052103;28;20032;-80
2022/11/02 11:54:26;;;;;;;3.08;0.80;;;16.70;56.50;;;;;;5053312;28;20022;-80
2022/11/02 11:57:19;;;;;;;4.88;0.80;;;16.80;56.40;;;;;;5035734;28;20021;-80
2022/11/02 11:59:46;;;;;;;;;;;16.80;54.10;;;;;;5040424;28;20049;-81
2022/11/02 12:02:22;;;;;;;3.35;0.77;;;16.80;54.50;;;;;;5053140;28;19912;-81
2022/11/02 12:04:48;;;;;;;4.43;0.65;;;16.80;55.00;;;;;;5054888;28;20088;-80
2022/11/02 12:07:44;;;;;;;4.90;0.95;;;17.00;55.50;;;;;;5057379;28;20519;-81
2022/11/02 12:10:18;;;;;;;5.47;1.50;;;17.10;52.80;;;;;;5057309;28;20044;-80
2022/11/02 12:12:56;;;;;;;2.80;0.77;;;17.10;53.70;;;;;;5039736;28;20036;-80
2022/11/02 12:15:24;;;;;;;6.82;1.05;;;17.00;52.10;;;;;;5057101;28;20026;-79
2022/11/02 12:18:11;;;;;;;6.07;0.70;;;17.00;52.70;;;;;;5057096;28;20085;-80
2022/11/02 12:20:58;;;;;;;4.30;1.08;;;17.00;52.70;;;;;;5056044;28;20049;-81
2022/11/02 12:23:44;;;;;;;8.38;1.00;;;17.00;53.00;;;;;;5055975;28;20029;-79
2022/11/02 12:26:28;;;;;;;6.05;0.68;;;16.90;52.50;;;;;;5057000;28;20029;-80
2022/11/02 12:29:06;;;;;;;5.30;1.13;;;16.90;52.90;;;;;;5056918;28;20064;-80
2022/11/02 12:31:37;;;;;;;9.30;1.00;;;16.90;52.30;;;;;;5056732;28;20032;-81
2022/11/02 12:34:02;;;;;;;6.05;1.00;;;16.80;53.90;;;;;;5056972;28;20021;-81
2022/11/02 12:37:19;;;;;;;5.40;0.98;;;16.80;54.20;;;;;;5039150;28;20030;-81
2022/11/02 12:39:55;;;;;;;6.45;1.20;;;16.90;54.10;;;;;;5006423;28;20033;-81
2022/11/02 12:42:46;;;;;;;6.07;0.75;;;16.90;54.40;;;;;;5056797;28;20060;-80
2022/11/02 12:45:31;;;;;;;3.80;0.90;;;16.90;52.90;;;;;;5056570;28;20034;-81
2022/11/02 12:48:05;;;;;;;4.15;1.05;;;17.00;53.70;;;;;;5056561;28;20026;-80
2022/11/02 12:50:55;;;;;;;5.22;1.65;;;16.90;54.10;;;;;;5039040;28;20056;-81
2022/11/02 12:53:54;;;;;;;4.53;0.82;;;16.90;53.80;;;;;;5056481;28;20021;-81
2022/11/02 12:56:33;;;;;;;5.22;0.80;;;16.90;53.80;;;;;;5056379;28;20021;-82
2022/11/02 12:58:59;;;;;;;10.32;1.73;;;16.70;55.00;;;;;;5056359;28;20053;-82
2022/11/02 13:01:36;;;;;;;5.35;1.00;;;16.70;54.70;;;;;;5056259;28;20026;-82
2022/11/02 13:04:31;;;;;;;5.85;1.02;;;16.70;55.30;;;;;;5056384;28;20021;-82
2022/11/02 13:07:02;;;;;;;7.40;1.33;;;16.70;55.50;;;;;;5056205;28;20026;-82
2022/11/02 13:09:40;;;;;;;6.13;0.90;;;16.60;56.40;;;;;;5055862;28;20045;-81
2022/11/02 13:12:15;;;;;;;9.27;1.10;;;16.50;56.30;;;;;;5038647;28;20280;-81
2022/11/02 13:14:43;;;;;;;6.20;1.52;;;16.50;57.60;;;;;;5056037;28;20029;-81
2022/11/02 13:17:38;;;;;;;6.68;0.90;;;16.40;58.20;;;;;;5055295;28;20017;-82
2022/11/02 13:20:25;;;;;;;9.57;1.15;;;16.40;57.50;;;;;;5054992;28;20049;-81
2022/11/02 13:23:04;;;;;;;5.07;0.90;;;16.40;58.80;;;;;;5056034;28;20029;-80
2022/11/02 13:25:43;;;;;;;7.28;1.00;;;16.40;58.80;;;;;;5056033;28;20472;-81